Time;durP1;ratioP1;P1;durP2;ratioP2;P2;SDS_P1;SDS_P2;PMS_P1;PMS_P2;Temp;Humidity;BMP_temperature;BMP_pressure;BME280_temperature;BME280_humidity;BME280_pressure;Samples;Min_cycle;Max_cycle;Signal;HPM_P1;HPM_P2
2023/10/18 00:00:24;;;;;;;24.00;18.83;;;;;;;4.72;100.00;101378.38;1243318;23;20268;-84
2023/10/18 00:00:59;;;;;;;26.00;18.98;;;;;;;4.76;100.00;101379.72;1229507;24;20663;-84
2023/10/18 00:01:32;;;;;;;26.00;19.52;;;;;;;4.77;100.00;101384.00;1241538;23;20265;-84
2023/10/18 00:02:06;;;;;;;23.60;19.48;;;;;;;4.68;100.00;101374.44;1243269;23;20741;-84
2023/10/18 00:02:37;;;;;;;26.35;18.92;;;;;;;4.64;100.00;101366.00;1229575;24;20599;-84
2023/10/18 00:03:09;;;;;;;22.77;17.98;;;;;;;4.67;100.00;101370.16;1225817;24;20353;-85
2023/10/18 00:03:41;;;;;;;33.38;19.25;;;;;;;4.75;100.00;101372.78;1237663;24;20253;-84
2023/10/18 00:04:15;;;;;;;24.67;17.63;;;;;;;4.82;100.00;101371.13;1235646;24;20300;-84
2023/10/18 00:04:47;;;;;;;28.20;19.83;;;;;;;4.75;100.00;101370.13;1241012;23;20375;-84
2023/10/18 00:05:21;;;;;;;27.35;18.52;;;;;;;4.57;100.00;101365.84;1237855;24;20260;-85
2023/10/18 00:05:53;;;;;;;21.52;16.85;;;;;;;4.55;100.00;101367.81;1237575;24;20268;-84
2023/10/18 00:06:26;;;;;;;24.52;18.08;;;;;;;4.59;100.00;101373.59;1234508;24;20273;-84
2023/10/18 00:06:58;;;;;;;26.13;19.88;;;;;;;4.71;100.00;101377.56;1237900;24;20394;-84
2023/10/18 00:07:30;;;;;;;24.48;17.50;;;;;;;4.68;100.00;101369.16;1235518;24;20264;-84
2023/10/18 00:08:03;;;;;;;24.02;18.00;;;;;;;4.69;100.00;101369.00;1235208;23;20277;-84
2023/10/18 00:08:35;;;;;;;28.50;19.63;;;;;;;4.70;100.00;101372.44;1230015;24;20280;-85
2023/10/18 00:09:57;;;;;;;21.80;17.15;;;;;;;4.75;100.00;101367.50;1251798;23;20266;-85
2023/10/18 00:10:30;;;;;;;24.27;17.30;;;;;;;4.62;100.00;101367.97;1257367;23;20278;-84
2023/10/18 00:11:01;;;;;;;23.55;17.55;;;;;;;4.76;100.00;101366.50;1253245;23;20266;-84
2023/10/18 00:11:33;;;;;;;24.08;18.40;;;;;;;4.67;100.00;101372.78;1254784;23;20296;-84
2023/10/18 00:12:07;;;;;;;22.33;18.85;;;;;;;4.70;100.00;101375.09;1241526;23;20276;-85
2023/10/18 00:12:39;;;;;;;25.10;17.42;;;;;;;4.74;100.00;101365.84;1240942;23;20291;-85
2023/10/18 00:13:12;;;;;;;24.08;18.33;;;;;;;4.63;100.00;101370.44;1243304;23;20268;-85
2023/10/18 00:13:49;;;;;;;22.73;18.95;;;;;;;4.70;100.00;101364.53;1234638;23;20253;-84
2023/10/18 00:14:21;;;;;;;22.50;18.35;;;;;;;4.61;100.00;101369.78;1235579;23;20273;-84
2023/10/18 00:14:52;;;;;;;21.23;17.25;;;;;;;4.72;100.00;101362.56;1237437;24;20737;-84
2023/10/18 00:15:24;;;;;;;25.17;17.95;;;;;;;4.72;100.00;101358.09;1239456;23;20301;-84
2023/10/18 00:16:03;;;;;;;28.42;20.05;;;;;;;4.78;100.00;101361.88;1244971;23;20268;-84
2023/10/18 00:16:35;;;;;;;22.13;16.83;;;;;;;4.86;100.00;101353.97;1254879;23;20263;-84
2023/10/18 00:17:07;;;;;;;27.08;18.10;;;;;;;4.87;100.00;101356.44;1243645;23;20268;-84
2023/10/18 00:17:38;;;;;;;25.05;18.98;;;;;;;4.79;100.00;101358.25;1241367;23;20290;-85
2023/10/18 00:18:11;;;;;;;23.90;19.77;;;;;;;4.77;100.00;101360.25;1231568;24;20528;-84
2023/10/18 00:18:43;;;;;;;27.23;19.52;;;;;;;4.76;100.00;101361.22;1233468;23;20262;-84
2023/10/18 00:19:14;;;;;;;24.85;18.98;;;;;;;4.56;100.00;101353.63;1229978;24;20284;-84
2023/10/18 00:19:46;;;;;;;25.20;19.48;;;;;;;4.72;100.00;101360.75;1229502;24;20294;-84
2023/10/18 00:20:23;;;;;;;27.52;20.15;;;;;;;4.69;100.00;101358.44;1229732;24;20276;-84
2023/10/18 00:21:03;;;;;;;24.83;17.23;;;;;;;4.64;100.00;101361.53;1235505;24;20583;-84
2023/10/18 00:21:35;;;;;;;24.13;18.00;;;;;;;4.70;100.00;101359.25;1240480;23;20284;-84
2023/10/18 00:22:09;;;;;;;23.67;18.73;;;;;;;4.71;100.00;101361.72;1235861;23;20292;-84
2023/10/18 00:22:45;;;;;;;25.35;18.67;;;;;;;4.71;100.00;101355.63;1241650;23;20741;-84
2023/10/18 00:23:16;;;;;;;21.70;17.70;;;;;;;4.69;100.00;101358.44;1235363;23;20347;-84
2023/10/18 00:23:48;;;;;;;23.77;17.52;;;;;;;4.71;100.00;101355.63;1235542;23;20280;-84
2023/10/18 00:24:20;;;;;;;28.90;19.92;;;;;;;4.69;100.00;101349.69;1237232;24;20264;-84
2023/10/18 00:24:51;;;;;;;25.88;18.55;;;;;;;4.68;100.00;101355.97;1243294;23;20256;-84
2023/10/18 00:25:23;;;;;;;23.10;19.15;;;;;;;4.66;100.00;101350.84;1235633;23;20271;-84
2023/10/18 00:25:55;;;;;;;24.33;19.25;;;;;;;4.70;100.00;101349.53;1235841;24;20276;-84
2023/10/18 00:26:26;;;;;;;24.23;18.73;;;;;;;4.70;100.00;101349.53;1237439;23;20296;-84
2023/10/18 00:27:00;;;;;;;22.38;18.25;;;;;;;4.67;100.00;101346.41;1244229;23;20264;-84
2023/10/18 00:27:32;;;;;;;23.35;18.15;;;;;;;4.56;100.00;101342.25;1247539;23;20279;-84
2023/10/18 00:28:04;;;;;;;23.77;18.15;;;;;;;4.58;100.00;101342.91;1235352;23;20276;-84
2023/10/18 00:28:36;;;;;;;23.38;17.23;;;;;;;4.55;100.00;101340.59;1246974;23;20278;-84
2023/10/18 00:29:08;;;;;;;24.95;17.88;;;;;;;4.60;100.00;101343.56;1235625;24;20705;-84
2023/10/18 00:29:39;;;;;;;20.48;16.55;;;;;;;4.58;100.00;101343.75;1235575;24;20733;-84
2023/10/18 00:30:11;;;;;;;26.65;18.00;;;;;;;4.56;100.00;101335.16;1237210;24;20261;-84
2023/10/18 00:30:43;;;;;;;26.42;18.60;;;;;;;4.53;100.00;101337.31;1229416;24;20345;-84
2023/10/18 00:31:17;;;;;;;26.52;17.70;;;;;;;4.57;100.00;101334.19;1235143;23;20328;-84
2023/10/18 00:31:50;;;;;;;21.40;17.20;;;;;;;4.60;100.00;101339.13;1240947;23;20877;-84
2023/10/18 00:32:21;;;;;;;24.25;18.65;;;;;;;4.63;100.00;101344.06;1235455;23;20269;-84
2023/10/18 00:32:53;;;;;;;23.48;17.20;;;;;;;4.65;100.00;101342.09;1240914;23;20276;-84
2023/10/18 00:33:25;;;;;;;22.35;18.23;;;;;;;4.64;100.00;101343.06;1235698;24;20261;-84
2023/10/18 00:33:56;;;;;;;23.77;18.40;;;;;;;4.65;100.00;101339.44;1253368;23;20279;-83
2023/10/18 00:34:28;;;;;;;23.77;18.90;;;;;;;4.65;100.00;101343.91;1246721;23;20312;-84
2023/10/18 00:35:00;;;;;;;21.08;18.50;;;;;;;4.57;100.00;101336.81;1235128;24;20284;-84
2023/10/18 00:35:32;;;;;;;23.95;18.20;;;;;;;4.56;100.00;101339.63;1235715;24;20269;-84
2023/10/18 00:36:04;;;;;;;27.38;19.10;;;;;;;4.60;100.00;101333.03;1237436;24;20292;-84
2023/10/18 00:36:35;;;;;;;21.95;17.95;;;;;;;4.53;100.00;101332.03;1241182;23;20282;-84
2023/10/18 00:37:08;;;;;;;26.00;17.98;;;;;;;4.56;100.00;101332.53;1229869;24;20580;-83
2023/10/18 00:37:41;;;;;;;24.60;18.73;;;;;;;4.51;100.00;101334.84;1247007;23;20271;-84
2023/10/18 00:38:18;;;;;;;25.42;17.30;;;;;;;4.56;100.00;101337.81;1243314;23;20256;-84
2023/10/18 00:38:52;;;;;;;22.00;17.65;;;;;;;4.63;100.00;101337.97;1245837;23;20263;-84
2023/10/18 00:39:27;;;;;;;24.73;19.40;;;;;;;4.56;100.00;101337.81;1246713;23;20310;-84
2023/10/18 00:40:05;;;;;;;26.48;19.77;;;;;;;4.57;100.00;101334.19;1241392;23;20352;-84
2023/10/18 00:40:39;;;;;;;24.50;17.80;;;;;;;4.56;100.00;101342.25;1240796;23;20745;-85
2023/10/18 00:42:53;;;;;;;24.63;17.70;;;;;;;4.60;100.00;101333.84;1237131;23;20065;-83
2023/10/18 00:43:28;;;;;;;24.52;17.88;;;;;;;4.60;100.00;101339.13;1245135;23;20800;-84
2023/10/18 00:44:00;;;;;;;21.38;16.83;;;;;;;4.63;100.00;101338.78;1241403;23;20497;-84
2023/10/18 00:44:31;;;;;;;26.60;17.08;;;;;;;4.61;100.00;101335.50;1235055;23;20276;-85
2023/10/18 00:45:08;;;;;;;25.52;18.77;;;;;;;4.59;100.00;101337.47;1242855;23;20591;-84
2023/10/18 00:45:47;;;;;;;21.60;16.38;;;;;;;4.60;100.00;101333.84;1243252;23;20347;-84
2023/10/18 00:46:19;;;;;;;24.42;17.77;;;;;;;4.54;100.00;101338.97;1241203;23;20440;-84
2023/10/18 00:46:55;;;;;;;23.75;18.75;;;;;;;4.51;100.00;101334.00;1234090;24;20265;-84
2023/10/18 00:47:30;;;;;;;23.98;18.38;;;;;;;4.43;100.00;101332.22;1244844;23;20347;-84
2023/10/18 00:48:05;;;;;;;20.95;17.23;;;;;;;4.27;100.00;101335.63;1243642;23;20276;-84
2023/10/18 00:48:37;;;;;;;23.00;18.00;;;;;;;4.34;100.00;101333.16;1243420;23;20367;-84
2023/10/18 00:49:14;;;;;;;26.30;19.33;;;;;;;4.38;100.00;101339.75;1241139;23;20268;-84
2023/10/18 00:49:47;;;;;;;28.13;18.92;;;;;;;4.42;100.00;101341.13;1229792;24;20347;-84
2023/10/18 00:50:27;;;;;;;23.35;18.83;;;;;;;4.55;100.00;101337.97;1243057;23;20283;-84
2023/10/18 00:50:59;;;;;;;22.40;17.70;;;;;;;4.43;100.00;101334.84;1241369;23;20275;-84
2023/10/18 00:51:32;;;;;;;25.25;17.75;;;;;;;4.57;100.00;101336.81;1243432;23;20020;-84
2023/10/18 00:52:03;;;;;;;22.17;16.70;;;;;;;4.50;100.00;101338.47;1241048;23;20291;-84
2023/10/18 00:52:35;;;;;;;22.67;17.73;;;;;;;4.46;100.00;101338.97;1241656;23;20304;-83
2023/10/18 00:53:08;;;;;;;25.15;18.05;;;;;;;4.36;100.00;101336.47;1241136;23;20272;-84
2023/10/18 00:53:42;;;;;;;24.92;18.92;;;;;;;4.46;100.00;101337.16;1241287;23;20268;-84
2023/10/18 00:54:14;;;;;;;22.45;17.67;;;;;;;4.43;100.00;101332.22;1249604;23;20264;-84
2023/10/18 00:54:46;;;;;;;24.27;17.85;;;;;;;4.57;100.00;101336.81;1243356;23;20288;-84
2023/10/18 00:55:19;;;;;;;24.90;18.35;;;;;;;4.47;100.00;101333.53;1246954;23;20830;-84
2023/10/18 00:55:59;;;;;;;24.48;17.42;;;;;;;4.58;100.00;101335.81;1237331;24;20268;-84
2023/10/18 00:56:33;;;;;;;22.73;17.25;;;;;;;4.59;100.00;101326.91;1243233;23;20288;-84
2023/10/18 00:57:04;;;;;;;23.02;17.15;;;;;;;4.59;100.00;101326.91;1235507;24;20804;-84
2023/10/18 00:57:37;;;;;;;23.65;18.17;;;;;;;4.64;100.00;101334.34;1243421;23;20264;-84
2023/10/18 00:58:23;;;;;;;23.38;16.70;;;;;;;4.52;100.00;101330.38;1237702;24;20630;-84
2023/10/18 00:58:58;;;;;;;22.42;16.73;;;;;;;4.56;100.00;101324.63;1235410;23;20398;-84
2023/10/18 00:59:30;;;;;;;20.08;17.00;;;;;;;4.50;100.00;101319.19;1234129;24;20348;-84
2023/10/18 01:00:11;;;;;;;22.48;17.02;;;;;;;4.47;100.00;101325.63;1247810;23;20262;-84
2023/10/18 01:00:44;;;;;;;24.17;17.27;;;;;;;4.54;100.00;101318.69;1246277;23;20267;-84
2023/10/18 01:01:17;;;;;;;27.10;17.73;;;;;;;4.62;100.00;101320.50;1235435;23;20417;-84
2023/10/18 01:02:00;;;;;;;25.55;17.27;;;;;;;4.64;100.00;101314.06;1246797;23;20732;-84
2023/10/18 01:02:35;;;;;;;22.75;18.35;;;;;;;4.60;100.00;101317.19;1241061;23;20304;-84
2023/10/18 01:03:09;;;;;;;26.80;18.15;;;;;;;4.63;100.00;101312.41;1241184;23;20268;-84
2023/10/18 01:03:46;;;;;;;24.58;17.73;;;;;;;4.61;100.00;101309.09;1242976;23;20284;-84
2023/10/18 01:04:24;;;;;;;23.20;16.92;;;;;;;4.59;100.00;101315.53;1249249;23;20474;-84
2023/10/18 01:04:56;;;;;;;24.98;17.98;;;;;;;4.48;100.00;101311.44;1241460;23;20291;-84
2023/10/18 01:05:28;;;;;;;22.48;17.95;;;;;;;4.58;100.00;101311.25;1242988;23;20266;-84
2023/10/18 01:06:04;;;;;;;24.83;16.63;;;;;;;4.62;100.00;101308.13;1242503;23;20267;-84
2023/10/18 01:06:36;;;;;;;20.25;16.77;;;;;;;4.68;100.00;101313.75;1246857;23;20652;-84
2023/10/18 01:07:15;;;;;;;24.25;18.48;;;;;;;4.63;100.00;101307.13;1241174;23;20471;-84
2023/10/18 01:07:48;;;;;;;22.20;17.45;;;;;;;4.63;100.00;101312.41;1235464;24;20269;-84
2023/10/18 01:08:23;;;;;;;25.33;17.90;;;;;;;4.67;100.00;101305.00;1237368;24;20312;-84
2023/10/18 01:08:56;;;;;;;27.05;18.48;;;;;;;4.54;100.00;101307.31;1241437;23;20275;-84
2023/10/18 01:09:27;;;;;;;23.08;16.90;;;;;;;4.54;100.00;101302.03;1235215;24;20272;-84
2023/10/18 01:09:59;;;;;;;26.33;18.75;;;;;;;4.55;100.00;101304.50;1236957;23;20268;-84
2023/10/18 01:10:36;;;;;;;24.63;17.67;;;;;;;4.55;100.00;101299.22;1235820;24;20256;-84
2023/10/18 01:11:10;;;;;;;25.88;19.55;;;;;;;4.60;100.00;101304.00;1235511;23;20442;-83
2023/10/18 01:11:42;;;;;;;24.67;19.58;;;;;;;4.60;100.00;101299.53;1235736;23;20269;-84
2023/10/18 01:12:15;;;;;;;24.27;19.65;;;;;;;4.58;100.00;101296.25;1241343;23;20276;-84
2023/10/18 01:12:47;;;;;;;22.42;18.48;;;;;;;4.59;100.00;101303.19;1247023;23;20274;-84
2023/10/18 01:13:20;;;;;;;25.20;20.00;;;;;;;4.59;100.00;101297.91;1247026;23;20590;-84
2023/10/18 01:13:55;;;;;;;27.83;19.73;;;;;;;4.59;100.00;101302.34;1243388;23;20257;-84
2023/10/18 01:14:27;;;;;;;26.75;18.30;;;;;;;4.54;100.00;101302.84;1235337;23;20265;-84
2023/10/18 01:14:59;;;;;;;23.17;18.23;;;;;;;4.57;100.00;101305.16;1242787;23;20260;-83
2023/10/18 01:15:33;;;;;;;26.50;18.25;;;;;;;4.58;100.00;101303.34;1248593;23;20335;-83
2023/10/18 01:16:23;;;;;;;25.65;18.08;;;;;;;4.61;100.00;101298.56;1247129;23;20287;-84
2023/10/18 01:16:56;;;;;;;25.33;17.55;;;;;;;4.62;100.00;101297.56;1236031;23;20268;-84
2023/10/18 01:17:28;;;;;;;24.08;17.63;;;;;;;4.62;100.00;101304.66;1235399;23;20110;-84
2023/10/18 01:17:59;;;;;;;25.58;18.13;;;;;;;4.58;100.00;101300.69;1235102;23;20352;-83
2023/10/18 01:18:31;;;;;;;22.73;17.77;;;;;;;4.37;100.00;101298.56;1235501;24;20705;-83
2023/10/18 01:19:08;;;;;;;23.88;18.27;;;;;;;4.47;100.00;101296.59;1229683;24;20285;-84
2023/10/18 01:19:41;;;;;;;23.17;18.00;;;;;;;4.45;100.00;101292.47;1235090;23;20269;-84
2023/10/18 01:20:29;;;;;;;22.77;16.83;;;;;;;4.53;100.00;101301.19;1237657;24;20260;-84
2023/10/18 01:21:13;;;;;;;24.33;16.92;;;;;;;4.50;100.00;101300.72;1243241;23;20752;-84
2023/10/18 01:21:46;;;;;;;22.33;17.15;;;;;;;4.50;100.00;101300.72;1243343;23;20654;-83
2023/10/18 01:22:19;;;;;;;26.40;17.95;;;;;;;4.49;100.00;101306.97;1243219;23;20598;-83
2023/10/18 01:22:51;;;;;;;26.17;17.85;;;;;;;4.45;100.00;101293.31;1237272;24;20265;-84
2023/10/18 01:23:23;;;;;;;21.98;17.95;;;;;;;4.36;100.00;101294.28;1238611;23;20613;-84
2023/10/18 01:23:59;;;;;;;21.35;16.27;;;;;;;4.40;100.00;101303.53;1245997;23;20275;-84
2023/10/18 01:24:34;;;;;;;23.65;19.45;;;;;;;4.41;100.00;101294.63;1240799;23;20319;-84
2023/10/18 01:25:09;;;;;;;25.13;18.70;;;;;;;4.54;100.00;101300.22;1243462;23;20726;-84
2023/10/18 01:25:41;;;;;;;22.77;17.48;;;;;;;4.52;100.00;101290.81;1243430;23;20344;-84
2023/10/18 01:26:15;;;;;;;24.25;18.75;;;;;;;4.44;100.00;101296.94;1235544;24;20265;-84
2023/10/18 01:26:47;;;;;;;24.25;18.30;;;;;;;4.51;100.00;101290.00;1235443;24;20285;-84
2023/10/18 01:27:19;;;;;;;24.42;18.02;;;;;;;4.53;100.00;101303.03;1241573;23;20280;-84
2023/10/18 01:27:51;;;;;;;26.48;18.83;;;;;;;4.51;100.00;101292.63;1244660;23;20271;-84
2023/10/18 01:28:23;;;;;;;27.60;19.13;;;;;;;4.39;100.00;101299.25;1247879;23;20311;-84
2023/10/18 01:28:56;;;;;;;29.40;16.92;;;;;;;4.49;100.00;101289.34;1249389;23;20252;-84
2023/10/18 01:29:29;;;;;;;24.50;16.80;;;;;;;4.44;100.00;101289.00;1243325;23;20256;-84
2023/10/18 01:30:01;;;;;;;22.25;17.45;;;;;;;4.49;100.00;101285.88;1244137;23;20272;-84
2023/10/18 01:30:33;;;;;;;22.90;15.82;;;;;;;4.53;100.00;101290.66;1242932;23;20268;-83
2023/10/18 01:31:05;;;;;;;28.52;18.83;;;;;;;4.62;100.00;101288.81;1241139;23;20272;-83
2023/10/18 01:31:49;;;;;;;25.63;17.88;;;;;;;4.61;100.00;101292.47;1243102;23;20259;-84
2023/10/18 01:32:21;;;;;;;21.92;15.85;;;;;;;4.62;100.00;101279.09;1240688;23;20581;-84
2023/10/18 01:32:53;;;;;;;25.00;18.25;;;;;;;4.64;100.00;101281.56;1238942;23;20284;-84
2023/10/18 01:33:26;;;;;;;26.40;19.23;;;;;;;4.64;100.00;101290.31;1238487;23;20276;-83
2023/10/18 01:33:58;;;;;;;24.05;18.23;;;;;;;4.59;100.00;101284.72;1235544;23;20291;-83
2023/10/18 01:34:31;;;;;;;24.17;18.20;;;;;;;4.59;100.00;101284.72;1241350;23;20272;-84
2023/10/18 01:35:04;;;;;;;24.75;18.35;;;;;;;4.60;100.00;101283.72;1240557;23;20363;-84
2023/10/18 01:35:46;;;;;;;22.60;17.08;;;;;;;4.59;100.00;101278.59;1241178;23;20744;-84
2023/10/18 01:36:20;;;;;;;26.95;18.67;;;;;;;4.50;100.00;101284.88;1235447;24;20416;-83
2023/10/18 01:36:56;;;;;;;25.63;17.00;;;;;;;4.47;100.00;101283.41;1240643;23;20312;-84
2023/10/18 01:37:29;;;;;;;24.13;17.83;;;;;;;4.49;100.00;101276.16;1237331;24;20265;-83
2023/10/18 01:38:05;;;;;;;23.70;19.23;;;;;;;4.57;100.00;101281.41;1247237;23;20715;-83
2023/10/18 01:38:36;;;;;;;23.10;17.80;;;;;;;4.51;100.00;101275.97;1240837;23;20276;-84
2023/10/18 01:39:18;;;;;;;27.10;17.70;;;;;;;4.60;100.00;101278.44;1241230;23;20276;-84
2023/10/18 01:39:52;;;;;;;22.65;17.77;;;;;;;4.55;100.00;101274.66;1247239;23;20324;-83
2023/10/18 01:41:08;;;;;;;25.05;17.63;;;;;;;4.55;100.00;101280.75;1246945;23;20275;-84
2023/10/18 01:41:40;;;;;;;25.55;17.42;;;;;;;4.61;100.00;101277.44;1251764;23;20300;-83
2023/10/18 01:42:13;;;;;;;22.23;17.58;;;;;;;4.58;100.00;101271.69;1241214;23;20280;-84
2023/10/18 01:42:46;;;;;;;21.65;17.88;;;;;;;4.42;100.00;101275.16;1226299;24;20352;-83
2023/10/18 01:43:18;;;;;;;23.33;17.45;;;;;;;4.46;100.00;101276.50;1236105;24;20330;-84
2023/10/18 01:44:05;;;;;;;23.20;16.83;;;;;;;4.33;100.00;101273.50;1234957;24;20274;-84
2023/10/18 01:44:38;;;;;;;24.60;18.13;;;;;;;4.43;100.00;101278.63;1235577;24;20791;-84
2023/10/18 01:45:11;;;;;;;25.30;17.83;;;;;;;4.44;100.00;101273.19;1240733;23;20272;-84
2023/10/18 01:45:43;;;;;;;20.55;16.10;;;;;;;4.53;100.00;101276.63;1234725;23;20273;-84
2023/10/18 01:46:14;;;;;;;24.33;18.33;;;;;;;4.49;100.00;101267.41;1247378;23;20767;-84
2023/10/18 01:46:46;;;;;;;23.45;17.17;;;;;;;4.51;100.00;101266.25;1241340;23;20283;-83
2023/10/18 01:47:20;;;;;;;23.40;17.80;;;;;;;4.53;100.00;101272.19;1242856;23;20755;-84
2023/10/18 01:47:52;;;;;;;20.65;17.35;;;;;;;4.43;100.00;101265.44;1238033;24;20391;-84
2023/10/18 01:48:25;;;;;;;21.23;17.38;;;;;;;4.49;100.00;101270.88;1237644;24;20265;-84
2023/10/18 01:48:57;;;;;;;23.25;18.45;;;;;;;4.41;100.00;101264.78;1238141;23;20273;-84
2023/10/18 01:49:29;;;;;;;29.08;19.35;;;;;;;4.47;100.00;101270.22;1250973;23;20255;-83
2023/10/18 01:50:01;;;;;;;26.17;17.88;;;;;;;4.44;100.00;101267.09;1248431;23;20582;-84
2023/10/18 01:50:32;;;;;;;23.55;17.85;;;;;;;4.35;100.00;101267.06;1240874;23;20278;-84
2023/10/18 01:51:06;;;;;;;24.20;17.50;;;;;;;4.43;100.00;101274.19;1241072;23;20276;-84
2023/10/18 01:51:37;;;;;;;24.85;17.02;;;;;;;4.34;100.00;101265.44;1241006;23;20272;-84
2023/10/18 01:52:12;;;;;;;23.15;16.73;;;;;;;4.42;100.00;101272.53;1246974;23;20279;-84
2023/10/18 01:52:44;;;;;;;22.30;17.83;;;;;;;4.34;100.00;101275.97;1237283;24;20800;-84
2023/10/18 01:53:16;;;;;;;28.02;17.58;;;;;;;4.43;100.00;101268.91;1238635;23;20257;-84
2023/10/18 01:53:50;;;;;;;19.95;16.65;;;;;;;4.41;100.00;101264.78;1235570;24;20273;-84
2023/10/18 01:54:25;;;;;;;22.80;17.80;;;;;;;4.41;100.00;101268.25;1240527;23;20355;-84
2023/10/18 01:54:56;;;;;;;20.98;17.77;;;;;;;4.41;100.00;101260.34;1247113;23;20450;-84
2023/10/18 01:55:31;;;;;;;19.58;16.90;;;;;;;4.46;100.00;101260.66;1249371;23;20307;-84
2023/10/18 01:56:03;;;;;;;23.17;17.58;;;;;;;4.49;100.00;101265.59;1247230;23;20362;-84
2023/10/18 01:56:35;;;;;;;26.60;18.90;;;;;;;4.47;100.00;101264.94;1242268;23;20771;-84
2023/10/18 01:57:07;;;;;;;21.88;17.38;;;;;;;4.50;100.00;101264.59;1252946;23;20357;-83
2023/10/18 01:57:41;;;;;;;21.27;17.65;;;;;;;4.47;100.00;101264.94;1246671;23;20267;-83
2023/10/18 01:58:13;;;;;;;23.88;17.80;;;;;;;4.42;100.00;101261.97;1241369;23;20378;-83
2023/10/18 01:58:46;;;;;;;24.77;17.58;;;;;;;4.44;100.00;101259.19;1240898;23;20280;-83
2023/10/18 01:59:18;;;;;;;22.52;18.50;;;;;;;4.46;100.00;101263.31;1234886;23;20360;-83
2023/10/18 01:59:50;;;;;;;28.10;19.02;;;;;;;4.43;100.00;101258.34;1229804;24;20274;-84
2023/10/18 02:00:34;;;;;;;26.63;17.23;;;;;;;4.38;100.00;101265.09;1235360;24;20273;-84
2023/10/18 02:01:10;;;;;;;20.98;17.45;;;;;;;4.29;100.00;101262.47;1258850;23;20274;-83
2023/10/18 02:01:45;;;;;;;24.42;18.13;;;;;;;4.31;100.00;101257.03;1249291;23;20262;-83
2023/10/18 02:02:17;;;;;;;21.10;17.75;;;;;;;4.36;100.00;101262.63;1249047;23;20318;-83
2023/10/18 02:02:48;;;;;;;25.75;17.52;;;;;;;4.37;100.00;101264.28;1240538;23;20272;-84
2023/10/18 02:03:20;;;;;;;22.17;17.80;;;;;;;4.33;100.00;101258.50;1249733;23;20266;-84
2023/10/18 02:03:53;;;;;;;26.80;18.83;;;;;;;4.36;100.00;101262.63;1255535;23;20251;-84
2023/10/18 02:04:25;;;;;;;24.75;18.83;;;;;;;4.34;100.00;101259.31;1257919;23;20353;-85
2023/10/18 02:05:15;;;;;;;25.25;17.83;;;;;;;4.38;100.00;101258.00;1241231;23;20276;-84
2023/10/18 02:05:47;;;;;;;21.70;17.50;;;;;;;4.33;100.00;101255.03;1241342;23;20272;-83
2023/10/18 02:06:20;;;;;;;19.75;17.40;;;;;;;4.37;100.00;101259.00;1246931;23;20268;-84
2023/10/18 02:06:57;;;;;;;25.38;18.30;;;;;;;4.36;100.00;101262.63;1235476;23;20277;-84
2023/10/18 02:07:28;;;;;;;23.58;18.48;;;;;;;4.29;100.00;101256.38;1237837;24;20277;-84
2023/10/18 02:08:01;;;;;;;26.30;19.85;;;;;;;4.35;100.00;101260.97;1235180;23;20277;-84
2023/10/18 02:08:34;;;;;;;23.50;17.42;;;;;;;4.16;100.00;101256.06;1229449;24;20301;-83
2023/10/18 02:09:10;;;;;;;25.67;18.33;;;;;;;4.28;100.00;101252.09;1237445;24;20257;-84
2023/10/18 02:09:47;;;;;;;23.63;17.88;;;;;;;4.15;100.00;101252.59;1235036;24;20269;-84
2023/10/18 02:10:23;;;;;;;21.60;17.13;;;;;;;4.24;100.00;101254.22;1235461;23;20751;-84
2023/10/18 02:10:55;;;;;;;24.55;18.00;;;;;;;4.24;100.00;101256.03;1235300;24;20662;-84
2023/10/18 02:11:35;;;;;;;24.83;18.92;;;;;;;4.11;100.00;101250.41;1235066;24;20702;-84
2023/10/18 02:12:08;;;;;;;26.15;18.00;;;;;;;4.22;100.00;101255.38;1237416;24;20257;-84
2023/10/18 02:12:40;;;;;;;23.75;17.77;;;;;;;4.23;100.00;101254.41;1229975;24;20655;-84
2023/10/18 02:13:15;;;;;;;23.60;18.02;;;;;;;4.23;100.00;101254.41;1235299;24;20269;-84
2023/10/18 02:13:47;;;;;;;24.50;18.40;;;;;;;4.16;100.00;101256.06;1235113;24;20276;-83
2023/10/18 02:14:19;;;;;;;24.58;17.80;;;;;;;4.20;100.00;101252.09;1246632;23;20351;-84
2023/10/18 02:14:51;;;;;;;26.30;19.45;;;;;;;4.22;100.00;101258.03;1240915;23;20275;-84
2023/10/18 02:15:24;;;;;;;23.58;18.55;;;;;;;4.16;100.00;101256.06;1237116;24;20328;-84
2023/10/18 02:15:57;;;;;;;25.63;17.60;;;;;;;4.20;100.00;101257.38;1235356;24;20770;-85
2023/10/18 02:16:31;;;;;;;29.13;18.92;;;;;;;4.24;100.00;101253.41;1235363;24;20273;-84
2023/10/18 02:17:07;;;;;;;23.20;17.60;;;;;;;4.26;100.00;101260.16;1241219;23;20264;-84
2023/10/18 02:17:40;;;;;;;27.00;19.45;;;;;;;4.28;100.00;101260.00;1237722;24;20329;-84
2023/10/18 02:18:13;;;;;;;23.33;17.63;;;;;;;4.26;100.00;101257.53;1235448;23;20265;-84
2023/10/18 02:18:49;;;;;;;24.38;17.13;;;;;;;4.30;100.00;101255.38;1235092;23;20285;-84
2023/10/18 02:19:21;;;;;;;26.42;18.77;;;;;;;4.21;100.00;101253.75;1243365;23;20256;-84
2023/10/18 02:19:54;;;;;;;22.38;17.17;;;;;;;4.26;100.00;101256.69;1241110;23;20284;-84
2023/10/18 02:20:26;;;;;;;24.17;17.40;;;;;;;4.28;100.00;101257.34;1240668;23;20307;-83
2023/10/18 02:20:58;;;;;;;24.70;18.00;;;;;;;4.30;100.00;101252.75;1243098;23;20347;-84
2023/10/18 02:21:34;;;;;;;26.30;18.15;;;;;;;4.31;100.00;101249.13;1234757;23;20272;-83
2023/10/18 02:22:09;;;;;;;25.40;18.48;;;;;;;4.28;100.00;101257.34;1229237;24;20292;-83
2023/10/18 02:22:42;;;;;;;24.08;17.85;;;;;;;4.20;100.00;101260.00;1235040;24;20288;-82
2023/10/18 02:23:13;;;;;;;20.73;17.65;;;;;;;4.25;100.00;101255.06;1242982;23;20248;-83
2023/10/18 02:23:48;;;;;;;24.02;17.85;;;;;;;4.26;100.00;101248.78;1244365;23;20271;-83
2023/10/18 02:24:20;;;;;;;28.27;19.33;;;;;;;4.25;100.00;101255.06;1240931;23;20645;-83
2023/10/18 02:24:53;;;;;;;27.20;19.40;;;;;;;4.18;100.00;101244.34;1246602;23;20271;-83
2023/10/18 02:25:47;;;;;;;24.13;17.60;;;;;;;4.21;100.00;101254.56;1240254;23;20272;-83
2023/10/18 02:26:30;;;;;;;22.60;17.55;;;;;;;4.25;100.00;101255.06;1235243;23;20269;-83
2023/10/18 02:27:03;;;;;;;25.38;17.52;;;;;;;4.27;100.00;101253.91;1245846;23;20263;-83
2023/10/18 02:27:36;;;;;;;24.13;17.98;;;;;;;4.11;100.00;101258.31;1246840;23;20280;-83
2023/10/18 02:28:09;;;;;;;23.38;18.08;;;;;;;4.18;100.00;101251.44;1235508;23;20839;-84
2023/10/18 02:28:41;;;;;;;26.10;18.98;;;;;;;4.14;100.00;101252.75;1241146;23;20624;-84
2023/10/18 02:29:13;;;;;;;24.27;18.50;;;;;;;4.23;100.00;101257.03;1242743;23;20648;-83
2023/10/18 02:29:45;;;;;;;24.88;19.23;;;;;;;4.22;100.00;101252.75;1246854;23;20270;-84
2023/10/18 02:30:17;;;;;;;23.75;18.23;;;;;;;4.19;100.00;101250.44;1242838;23;20264;-83
2023/10/18 02:30:55;;;;;;;24.45;19.27;;;;;;;4.13;100.00;101251.09;1234681;23;20277;-84
2023/10/18 02:31:28;;;;;;;23.80;18.48;;;;;;;4.20;100.00;101252.09;1231526;24;20261;-83
2023/10/18 02:32:04;;;;;;;24.85;17.17;;;;;;;4.19;100.00;101250.44;1237025;23;20272;-83
2023/10/18 02:32:38;;;;;;;24.33;18.50;;;;;;;4.15;100.00;101246.50;1252710;23;20274;-84
2023/10/18 02:33:10;;;;;;;24.42;18.38;;;;;;;4.14;100.00;101247.47;1246816;23;20278;-83
2023/10/18 02:33:42;;;;;;;23.60;16.85;;;;;;;4.14;100.00;101253.59;1246718;23;20630;-83
2023/10/18 02:34:14;;;;;;;23.95;17.55;;;;;;;4.14;100.00;101239.56;1246356;23;20728;-83
2023/10/18 02:35:04;;;;;;;25.00;18.23;;;;;;;4.14;100.00;101252.75;1235081;23;20709;-83
2023/10/18 02:35:40;;;;;;;27.70;17.38;;;;;;;4.16;100.00;101242.88;1235012;23;20667;-83
2023/10/18 02:36:12;;;;;;;28.60;18.75;;;;;;;4.14;100.00;101247.47;1243016;23;20256;-83
2023/10/18 02:36:47;;;;;;;23.85;17.55;;;;;;;4.13;100.00;101243.19;1246465;23;20266;-83
2023/10/18 02:37:24;;;;;;;26.73;19.73;;;;;;;4.11;100.00;101245.16;1245544;23;20272;-83